Time;durP1;ratioP1;P1;durP2;ratioP2;P2;SDS_P1;SDS_P2;PMS_P1;PMS_P2;Temp;Humidity;BMP_temperature;BMP_pressure;BME280_temperature;BME280_humidity;BME280_pressure;Samples;Min_cycle;Max_cycle;Signal;HPM_P1;HPM_P2
2024/03/15 00:02:34;;;;;;;;;;;;;;;14.02;61.81;100888.56;5094299;28;19916;-82
2024/03/15 00:05:26;;;;;;;;;;;;;;;13.88;61.34;100898.16;5079130;28;19915;-82
2024/03/15 00:08:18;;;;;;;;;;;;;;;13.74;61.84;100889.44;5093932;28;20297;-82
2024/03/15 00:11:08;;;;;;;;;;;;;;;13.64;62.70;100888.69;5103237;28;19920;-81
2024/03/15 00:13:57;;;;;;;;;;;;;;;13.63;63.11;100881.63;5093508;28;19920;-81
2024/03/15 00:16:50;;;;;;;;;;;;;;;13.52;63.15;100885.06;5088425;28;19915;-82
2024/03/15 00:19:41;;;;;;;;;;;;;;;13.54;63.53;100880.09;5097479;28;19920;-81
2024/03/15 00:22:33;;;;;;;;;;;;;;;13.53;63.94;100887.47;5081192;28;19920;-81
2024/03/15 00:25:25;;;;;;;;;;;;;;;13.52;64.35;100896.00;5092571;28;19920;-81
2024/03/15 00:28:17;;;;;;;;;;;;;;;13.51;64.13;100883.50;5093359;28;19916;-81
2024/03/15 00:31:08;;;;;;;;;;;;;;;13.50;63.97;100882.69;5080666;28;20423;-81
2024/03/15 00:34:00;;;;;;;;;;;;;;;13.49;63.55;100892.00;5093621;28;19916;-82
2024/03/15 00:36:52;;;;;;;;;;;;;;;13.47;63.03;100877.84;5095877;28;19916;-81
2024/03/15 00:39:41;;;;;;;;;;;;;;;13.34;63.30;100876.19;5084445;28;19927;-82
2024/03/15 00:42:33;;;;;;;;;;;;;;;13.33;63.85;100880.03;5083201;28;19920;-82
2024/03/15 00:45:25;;;;;;;;;;;;;;;13.36;63.91;100879.38;5077972;28;19916;-82
2024/03/15 00:48:17;;;;;;;;;;;;;;;13.37;63.73;100883.69;5093237;28;19916;-82
2024/03/15 00:51:17;;;;;;;;;;;;;;;13.45;63.82;100882.06;5092950;28;20392;-81
2024/03/15 00:54:09;;;;;;;;;;;;;;;13.42;63.55;100874.50;5094125;28;19920;-81
2024/03/15 00:57:01;;;;;;;;;;;;;;;13.20;63.47;100878.34;5083020;28;20292;-84
2024/03/15 00:59:53;;;;;;;;;;;;;;;13.23;63.23;100866.75;5085153;28;19915;-81
2024/03/15 01:02:45;;;;;;;;;;;;;;;13.14;64.32;100866.00;5092737;28;19916;-82
2024/03/15 01:05:37;;;;;;;;;;;;;;;13.18;64.31;100864.22;5101981;28;19916;-82
2024/03/15 01:08:34;;;;;;;;;;;;;;;13.07;63.68;100852.81;5114679;28;19920;-81
2024/03/15 01:11:26;;;;;;;;;;;;;;;13.01;63.68;100851.41;5112095;28;20651;-82
2024/03/15 01:14:16;;;;;;;;;;;;;;;13.00;63.39;100857.22;5100809;28;20324;-82
2024/03/15 01:17:05;;;;;;;;;;;;;;;12.82;63.80;100857.25;5112832;28;19920;-82
2024/03/15 01:19:57;;;;;;;;;;;;;;;12.87;64.22;100850.81;5112406;28;20368;-82
2024/03/15 01:22:49;;;;;;;;;;;;;;;12.94;63.85;100844.88;5109836;28;20320;-83
2024/03/15 01:25:37;;;;;;;;;;;;;;;13.10;63.87;100841.25;5098407;28;19923;-82
2024/03/15 01:28:29;;;;;;;;;;;;;;;12.96;62.88;100840.66;5112953;28;19916;-82
2024/03/15 01:31:21;;;;;;;;;;;;;;;12.97;63.57;100841.47;5114486;28;19916;-81
2024/03/15 01:34:13;;;;;;;;;;;;;;;13.13;63.37;100840.63;5111658;28;20384;-82
2024/03/15 01:37:05;;;;;;;;;;;;;;;13.11;63.19;100845.59;5112406;28;19920;-81
2024/03/15 01:39:54;;;;;;;;;;;;;;;13.05;62.81;100843.38;5112990;28;19920;-82
2024/03/15 01:42:47;;;;;;;;;;;;;;;12.96;63.25;100837.13;5106817;28;19915;-81
2024/03/15 01:45:39;;;;;;;;;;;;;;;12.87;63.77;100839.91;5100858;28;20400;-82
2024/03/15 01:48:31;;;;;;;;;;;;;;;12.73;63.48;100839.31;5112409;28;20389;-82
2024/03/15 01:51:23;;;;;;;;;;;;;;;12.68;64.35;100836.78;5114706;28;19924;-83
2024/03/15 01:54:15;;;;;;;;;;;;;;;12.84;64.22;100835.91;5114686;28;19915;-82
2024/03/15 01:57:07;;;;;;;;;;;;;;;12.91;63.94;100827.19;5111763;28;19916;-81
2024/03/15 01:59:56;;;;;;;;;;;;;;;12.88;63.82;100832.53;5117741;28;20296;-82
2024/03/15 02:02:49;;;;;;;;;;;;;;;12.84;63.95;100833.19;5107946;28;19920;-81
2024/03/15 02:05:41;;;;;;;;;;;;;;;12.78;63.65;100837.22;5096715;28;19916;-83
2024/03/15 02:08:33;;;;;;;;;;;;;;;12.77;63.97;100832.88;5114788;28;19920;-82
2024/03/15 02:11:26;;;;;;;;;;;;;;;12.62;64.08;100829.88;5112111;28;19923;-81
2024/03/15 02:14:18;;;;;;;;;;;;;;;12.56;64.63;100831.97;5100307;28;20397;-81
2024/03/15 02:17:13;;;;;;;;;;;;;;;12.61;64.84;100831.81;5113640;28;19916;-82
2024/03/15 02:20:06;;;;;;;;;;;;;;;12.53;65.28;100826.38;5111621;28;19916;-82
2024/03/15 02:22:57;;;;;;;;;;;;;;;12.60;65.16;100829.41;5115178;28;19919;-82
2024/03/15 02:25:49;;;;;;;;;;;;;;;12.64;65.23;100838.56;5107327;28;19916;-82
2024/03/15 02:28:41;;;;;;;;;;;;;;;12.59;65.13;100830.53;5101899;28;19919;-82
2024/03/15 02:31:34;;;;;;;;;;;;;;;12.56;65.12;100831.97;5113971;28;19920;-82
2024/03/15 02:34:23;;;;;;;;;;;;;;;12.61;64.78;100834.53;5097455;28;19916;-82
2024/03/15 02:37:15;;;;;;;;;;;;;;;12.69;64.43;100839.19;5115401;28;19915;-82
2024/03/15 02:40:09;;;;;;;;;;;;;;;12.65;64.59;100838.22;5117199;28;19920;-80
2024/03/15 02:43:02;;;;;;;;;;;;;;;12.68;64.80;100834.84;5110868;28;19915;-81
2024/03/15 02:45:54;;;;;;;;;;;;;;;12.58;64.91;100829.75;5114636;28;19920;-81
2024/03/15 02:48:43;;;;;;;;;;;;;;;12.57;65.27;100833.59;5112427;28;19916;-82
2024/03/15 02:51:30;;;;;;;;;;;;;;;12.70;64.73;100835.31;5111773;28;19916;-82
2024/03/15 02:54:29;;;;;;;;;;;;;;;12.73;64.52;100834.66;5113354;28;19923;-82
2024/03/15 02:57:21;;;;;;;;;;;;;;;12.67;65.17;100838.69;5097289;28;19916;-82
2024/03/15 03:00:12;;;;;;;;;;;;;;;12.80;65.81;100837.66;5115899;28;20667;-83
2024/03/15 03:03:05;;;;;;;;;;;;;;;12.71;65.37;100838.84;5112991;28;19915;-83
2024/03/15 03:05:57;;;;;;;;;;;;;;;12.55;65.43;100830.38;5110431;28;19916;-81
2024/03/15 03:08:47;;;;;;;;;;;;;;;12.47;65.99;100828.47;5108563;28;20396;-82
2024/03/15 03:11:39;;;;;;;;;;;;;;;12.48;65.41;100830.09;5111402;28;19923;-81
2024/03/15 03:14:31;;;;;;;;;;;;;;;12.32;65.26;100831.72;5098525;28;19915;-82
2024/03/15 03:17:23;;;;;;;;;;;;;;;12.31;65.29;100833.66;5113566;28;19920;-81
2024/03/15 03:20:18;;;;;;;;;;;;;;;12.23;64.68;100820.84;5111198;28;19920;-82
2024/03/15 03:23:08;;;;;;;;;;;;;;;12.10;64.79;100819.09;5115260;28;19915;-82
2024/03/15 03:25:59;;;;;;;;;;;;;;;12.18;64.88;100820.22;5098575;28;20403;-82
2024/03/15 03:28:49;;;;;;;;;;;;;;;12.28;65.06;100820.69;5113355;28;20388;-82
2024/03/15 03:31:41;;;;;;;;;;;;;;;12.20;64.89;100824.19;5118291;28;19916;-81
2024/03/15 03:34:33;;;;;;;;;;;;;;;12.13;64.34;100823.09;5115856;28;19915;-82
2024/03/15 03:37:25;;;;;;;;;;;;;;;12.16;64.70;100831.44;5104951;28;19919;-81
2024/03/15 03:40:17;;;;;;;;;;;;;;;11.94;64.33;100821.50;5114617;28;20368;-83
2024/03/15 03:43:09;;;;;;;;;;;;;;;11.94;64.69;100815.25;5114640;28;19919;-82
2024/03/15 03:45:58;;;;;;;;;;;;;;;11.95;65.05;100820.38;5114609;28;19919;-81
2024/03/15 03:48:50;;;;;;;;;;;;;;;11.98;65.19;100814.31;5114466;28;20300;-82
2024/03/15 03:51:42;;;;;;;;;;;;;;;11.90;65.71;100815.09;5114479;28;19916;-81
2024/03/15 03:54:34;;;;;;;;;;;;;;;11.78;66.53;100817.69;5116014;28;19916;-83
2024/03/15 03:57:24;;;;;;;;;;;;;;;11.87;66.83;100820.41;5115714;28;19915;-82
2024/03/15 04:00:16;;;;;;;;;;;;;;;12.06;66.54;100817.31;5114333;28;19919;-81
2024/03/15 04:03:08;;;;;;;;;;;;;;;12.13;65.76;100818.44;5102287;28;19920;-82
2024/03/15 04:06:01;;;;;;;;;;;;;;;12.08;66.09;100821.34;5093845;28;19916;-81
2024/03/15 04:08:54;;;;;;;;;;;;;;;11.98;65.76;100814.31;5083093;28;19916;-81
2024/03/15 04:11:46;;;;;;;;;;;;;;;11.99;66.42;100824.06;5093669;28;19920;-82
2024/03/15 04:14:35;;;;;;;;;;;;;;;11.96;66.23;100829.34;5079067;28;20296;-82
2024/03/15 04:17:27;;;;;;;;;;;;;;;12.11;66.22;100830.78;5093685;28;19915;-81
2024/03/15 04:20:19;;;;;;;;;;;;;;;12.08;66.44;100828.72;5092943;28;20384;-81
2024/03/15 04:23:16;;;;;;;;;;;;;;;12.01;66.28;100831.91;5088179;28;19920;-81
2024/03/15 04:26:08;;;;;;;;;;;;;;;12.06;66.60;100826.31;5103035;28;19919;-81
2024/03/15 04:29:02;;;;;;;;;;;;;;;12.03;66.40;100831.59;5099353;28;20399;-81
2024/03/15 04:31:54;;;;;;;;;;;;;;;11.97;66.51;100820.88;5102928;28;19915;-81
2024/03/15 04:34:43;;;;;;;;;;;;;;;12.09;65.91;100824.88;5113812;28;20381;-81
2024/03/15 04:37:32;;;;;;;;;;;;;;;12.10;65.34;100829.19;5112945;28;19920;-81
2024/03/15 04:40:25;;;;;;;;;;;;;;;12.15;64.96;100829.00;5115210;28;19916;-82
2024/03/15 04:43:17;;;;;;;;;;;;;;;12.22;65.16;100834.78;5114737;28;19920;-82
2024/03/15 04:46:09;;;;;;;;;;;;;;;12.28;65.74;100828.06;5103870;28;20538;-81
2024/03/15 04:49:01;;;;;;;;;;;;;;;12.25;65.49;100828.69;5113147;28;19916;-81
2024/03/15 04:51:51;;;;;;;;;;;;;;;12.12;65.07;100821.50;5099047;28;19916;-82
2024/03/15 04:54:43;;;;;;;;;;;;;;;11.98;65.28;100827.94;5099990;28;19920;-81
2024/03/15 04:57:36;;;;;;;;;;;;;;;12.08;64.44;100820.53;5113468;28;19916;-81
2024/03/15 05:00:28;;;;;;;;;;;;;;;11.99;63.62;100824.06;5098028;28;19919;-82
2024/03/15 05:03:20;;;;;;;;;;;;;;;11.79;65.57;100823.91;5101492;28;19916;-81
2024/03/15 05:06:12;;;;;;;;;;;;;;;11.65;66.24;100824.03;5095533;28;19920;-81
2024/03/15 05:09:05;;;;;;;;;;;;;;;11.64;66.46;100824.34;5101015;28;19916;-81
2024/03/15 05:11:58;;;;;;;;;;;;;;;11.81;66.58;100822.47;5092628;28;20612;-81
2024/03/15 05:14:49;;;;;;;;;;;;;;;11.79;67.18;100813.00;5091755;28;19920;-81
2024/03/15 05:17:41;;;;;;;;;;;;;;;11.81;66.08;100822.47;5084939;28;20007;-83
2024/03/15 05:20:28;;;;;;;;;;;;;;;11.60;65.95;100821.47;5075311;28;20544;-81
2024/03/15 05:23:20;;;;;;;;;;;;;;;11.57;65.67;100822.13;5079423;28;19916;-81
2024/03/15 05:26:13;;;;;;;;;;;;;;;11.56;66.91;100823.22;5090018;28;19915;-82
2024/03/15 05:29:05;;;;;;;;;;;;;;;11.53;66.65;100821.94;5104041;28;19916;-82
2024/03/15 05:31:54;;;;;;;;;;;;;;;11.54;66.41;100825.47;5094011;28;20385;-81
2024/03/15 05:34:46;;;;;;;;;;;;;;;11.58;66.97;100823.69;5084710;28;19920;-80
2024/03/15 05:37:38;;;;;;;;;;;;;;;11.66;66.52;100836.53;5090881;28;19928;-80
2024/03/15 05:40:33;;;;;;;;;;;;;;;11.38;65.39;100829.75;5101853;28;19916;-82
2024/03/15 05:43:25;;;;;;;;;;;;;;;11.31;66.92;100837.59;5114776;28;20300;-81
2024/03/15 05:46:18;;;;;;;;;;;;;;;11.48;66.59;100843.06;5111954;28;19916;-81
2024/03/15 05:49:10;;;;;;;;;;;;;;;11.56;66.57;100850.47;5112050;28;20292;-81
2024/03/15 05:52:02;;;;;;;;;;;;;;;11.46;66.85;100848.03;5112031;28;19920;-81
2024/03/15 05:54:49;;;;;;;;;;;;;;;11.55;66.54;100852.38;5097003;28;19919;-81
2024/03/15 05:57:41;;;;;;;;;;;;;;;11.55;67.13;100854.31;5093982;28;19919;-81
2024/03/15 06:00:33;;;;;;;;;;;;;;;11.49;67.09;100852.84;5112195;28;20292;-81
2024/03/15 06:03:26;;;;;;;;;;;;;;;11.32;67.39;100858.28;5112233;28;19916;-80
2024/03/15 06:06:18;;;;;;;;;;;;;;;10.67;69.81;100858.94;5099768;28;20376;-83
2024/03/15 06:09:10;;;;;;;;;;;;;;;9.80;73.57;100859.47;5098986;28;19919;-82
2024/03/15 06:11:59;;;;;;;;;;;;;;;10.25;74.58;100866.56;5115307;28;19916;-82
2024/03/15 06:14:49;;;;;;;;;;;;;;;10.96;72.41;100872.88;5082976;28;19920;-81
2024/03/15 06:17:41;;;;;;;;;;;;;;;11.35;70.68;100876.69;5097078;28;19931;-80
2024/03/15 06:20:30;;;;;;;;;;;;;;;11.37;70.16;100888.06;5111529;28;20376;-80
2024/03/15 06:23:20;;;;;;;;;;;;;;;11.23;70.21;100884.63;5113097;28;20296;-84
2024/03/15 06:26:14;;;;;;;;;;;;;;;11.26;72.13;100878.59;5105564;28;19916;-78
2024/03/15 06:29:01;;;;;;;;;;;;;;;11.59;71.15;100885.22;5105540;28;20381;-78
2024/03/15 06:31:53;;;;;;;;;;;;;;;11.29;71.77;100880.66;5116649;28;19916;-76
2024/03/15 06:34:44;;;;;;;;;;;;;;;11.63;71.03;100885.41;5116274;28;19915;-78
2024/03/15 06:37:36;;;;;;;;;;;;;;;11.76;69.46;100893.47;5102818;28;20393;-81
2024/03/15 06:40:42;;;;;;;;;;;;;;;11.38;70.71;100895.09;5111637;28;19920;-80
2024/03/15 06:50:37;;;;;;;;;;;;;;;11.62;72.24;100889.25;5084474;28;19924;-81
2024/03/15 06:53:02;;;;;;;;;;;;;;;11.76;71.46;100892.66;5094741;28;20292;-82
2024/03/15 06:55:53;;;;;;;;;;;;;;;12.12;70.71;100895.91;5070890;28;19920;-81
2024/03/15 06:58:43;;;;;;;;;;;;;;;12.01;70.76;100900.06;5070613;28;19921;-79
2024/03/15 07:01:35;;;;;;;;;;;;;;;12.49;70.29;100899.09;5070877;28;19917;-81
2024/03/15 07:04:27;;;;;;;;;;;;;;;12.93;68.84;100898.66;5090803;28;20392;-81
2024/03/15 07:07:18;;;;;;;;;;;;;;;13.18;67.49;100896.97;5079904;28;20087;-80
2024/03/15 07:10:14;;;;;;;;;;;;;;;13.68;66.82;100899.75;5102273;28;19916;-80
2024/03/15 07:13:02;;;;;;;;;;;;;;;14.29;64.75;100909.09;5105865;28;20311;-80
2024/03/15 07:15:51;;;;;;;;;;;;;;;14.43;64.07;100915.13;5097559;28;19965;-80
2024/03/15 07:18:43;;;;;;;;;;;;;;;14.49;63.43;100912.97;5110088;28;19916;-80
2024/03/15 07:21:38;;;;;;;;;;;;;;;14.84;63.03;100906.00;5091030;28;19929;-80
2024/03/15 07:24:28;;;;;;;;;;;;;;;15.10;62.29;100905.72;5081726;28;19916;-80
2024/03/15 07:27:17;;;;;;;;;;;;;;;15.37;61.64;100915.22;5094875;28;19916;-80
2024/03/15 07:30:08;;;;;;;;;;;;;;;15.54;60.88;100917.78;5094802;28;19920;-80
2024/03/15 07:33:00;;;;;;;;;;;;;;;15.53;61.15;100921.66;5102814;28;19916;-81
2024/03/15 07:35:52;;;;;;;;;;;;;;;15.36;61.20;100919.91;5078258;28;19924;-80
2024/03/15 07:38:42;;;;;;;;;;;;;;;15.23;61.61;100912.81;5098159;28;20312;-80
2024/03/15 07:41:32;;;;;;;;;;;;;;;15.36;61.76;100925.38;5093804;28;20394;-80
2024/03/15 07:44:21;;;;;;;;;;;;;;;15.49;61.65;100928.91;5074362;28;20320;-80
2024/03/15 07:47:09;;;;;;;;;;;;;;;15.72;61.05;100932.03;5084843;28;19916;-80
2024/03/15 07:50:00;;;;;;;;;;;;;;;15.85;60.50;100930.84;5088387;28;20381;-79
2024/03/15 07:52:52;;;;;;;;;;;;;;;15.58;61.07;100928.84;5072074;28;19919;-80
2024/03/15 07:55:44;;;;;;;;;;;;;;;15.83;60.59;100930.41;5084157;28;20344;-81
2024/03/15 07:58:36;;;;;;;;;;;;;;;16.00;59.66;100929.38;5082415;28;19920;-80
2024/03/15 08:01:26;;;;;;;;;;;;;;;16.53;58.65;100934.44;5094739;28;19920;-79
2024/03/15 08:04:15;;;;;;;;;;;;;;;16.76;57.88;100933.91;5083174;28;19916;-80
2024/03/15 08:07:08;;;;;;;;;;;;;;;16.92;57.53;100938.25;5082522;28;19920;-79
2024/03/15 08:09:57;;;;;;;;;;;;;;;16.97;57.16;100938.00;5083429;28;19927;-83
2024/03/15 08:12:47;;;;;;;;;;;;;;;16.58;58.77;100941.63;5098019;28;20296;-82
2024/03/15 08:15:39;;;;;;;;;;;;;;;17.37;56.27;100940.59;5095235;28;19924;-80
2024/03/15 08:18:31;;;;;;;;;;;;;;;17.39;56.46;100943.78;5079476;28;19916;-78
2024/03/15 08:21:20;;;;;;;;;;;;;;;17.98;55.03;100947.56;5083011;28;19920;-80
2024/03/15 08:24:12;;;;;;;;;;;;;;;17.74;54.35;100951.31;5077320;28;19916;-78
2024/03/15 08:27:04;;;;;;;;;;;;;;;18.00;54.02;100951.53;5084771;28;20384;-80
2024/03/15 08:29:56;;;;;;;;;;;;;;;17.28;55.63;100952.91;5096680;28;19916;-82
2024/03/15 08:32:48;;;;;;;;;;;;;;;18.09;55.13;100956.81;5089375;28;20385;-81
2024/03/15 08:35:39;;;;;;;;;;;;;;;17.64;54.46;100958.16;5090379;28;19928;-79
2024/03/15 08:38:29;;;;;;;;;;;;;;;17.26;57.34;100953.28;5080330;28;19916;-82
2024/03/15 08:41:21;;;;;;;;;;;;;;;18.17;54.11;100955.84;5091581;28;19923;-78
2024/03/15 08:44:13;;;;;;;;;;;;;;;19.12;51.63;100957.75;5088178;28;19916;-81
2024/03/15 08:47:05;;;;;;;;;;;;;;;19.48;50.06;100948.16;5093640;28;19920;-79
2024/03/15 08:49:54;;;;;;;;;;;;;;;19.56;50.58;100966.41;5095665;28;20667;-79
2024/03/15 08:52:46;;;;;;;;;;;;;;;19.57;49.77;100956.97;5092569;28;19916;-81
2024/03/15 08:55:38;;;;;;;;;;;;;;;19.21;50.50;100960.25;5085752;28;19924;-80
2024/03/15 08:58:30;;;;;;;;;;;;;;;19.70;48.95;100956.78;5092565;28;20385;-80
2024/03/15 09:01:24;;;;;;;;;;;;;;;20.03;48.51;100957.66;5080084;28;19919;-77
2024/03/15 09:04:15;;;;;;;;;;;;;;;20.42;47.71;100952.66;5081007;28;19920;-80
2024/03/15 09:07:07;;;;;;;;;;;;;;;19.74;48.93;100952.91;5082247;28;19916;-80
2024/03/15 09:09:56;;;;;;;;;;;;;;;20.03;48.74;100948.56;5093435;28;19916;-79
2024/03/15 09:12:47;;;;;;;;;;;;;;;20.23;47.19;100961.09;5083696;28;19919;-82
2024/03/15 09:15:39;;;;;;;;;;;;;;;21.03;45.99;100959.66;5081030;28;20304;-81
2024/03/15 09:18:28;;;;;;;;;;;;;;;20.97;45.33;100968.72;5077759;28;19916;-81
2024/03/15 09:21:19;;;;;;;;;;;;;;;23.76;41.24;100970.13;5082660;28;20301;-81
2024/03/15 09:24:11;;;;;;;;;;;;;;;23.29;39.20;100968.50;5098525;28;19919;-82
2024/03/15 09:27:04;;;;;;;;;;;;;;;22.87;40.36;100963.69;5111673;28;19924;-81
2024/03/15 09:29:53;;;;;;;;;;;;;;;23.84;38.38;100968.91;5112480;28;19916;-79
2024/03/15 09:32:48;;;;;;;;;;;;;;;23.55;38.76;100967.34;5112713;28;19920;-81
2024/03/15 09:35:40;;;;;;;;;;;;;;;21.63;43.63;100965.78;5102730;28;19923;-80
2024/03/15 09:38:32;;;;;;;;;;;;;;;21.57;44.11;100966.50;5096328;28;19919;-82
2024/03/15 09:41:24;;;;;;;;;;;;;;;22.82;41.60;100963.25;5096029;28;19916;-81
2024/03/15 09:44:16;;;;;;;;;;;;;;;23.11;40.52;100967.69;5114699;28;19916;-81
2024/03/15 09:47:08;;;;;;;;;;;;;;;22.94;40.68;100969.25;5112494;28;19916;-81
2024/03/15 09:49:57;;;;;;;;;;;;;;;22.30;41.86;100964.66;5111160;28;19924;-81
2024/03/15 09:52:49;;;;;;;;;;;;;;;21.25;44.28;100961.50;5115461;28;19916;-82
2024/03/15 09:55:40;;;;;;;;;;;;;;;22.28;42.34;100964.22;5084921;28;19919;-80
2024/03/15 09:58:32;;;;;;;;;;;;;;;23.00;40.82;100964.91;5085616;28;19938;-79
2024/03/15 10:01:24;;;;;;;;;;;;;;;23.91;39.23;100964.53;5103158;28;19915;-79
2024/03/15 10:04:14;;;;;;;;;;;;;;;23.84;38.97;100962.56;5112772;28;20388;-80
2024/03/15 10:07:06;;;;;;;;;;;;;;;22.50;40.48;100960.38;5103805;28;20543;-80
2024/03/15 10:09:57;;;;;;;;;;;;;;;24.03;38.03;100959.34;5087062;28;19919;-79
2024/03/15 10:12:48;;;;;;;;;;;;;;;27.31;32.51;100962.41;5083276;28;19924;-79
2024/03/15 10:15:42;;;;;;;;;;;;;;;30.84;27.66;100974.28;5094666;28;20376;-81
2024/03/15 10:18:33;;;;;;;;;;;;;;;29.98;27.67;100978.75;5073176;28;19923;-80
2024/03/15 10:21:26;;;;;;;;;;;;;;;30.42;25.75;100979.16;5086735;28;19920;-80
2024/03/15 10:24:18;;;;;;;;;;;;;;;30.95;25.28;100971.94;5084242;28;19920;-80
2024/03/15 10:27:12;;;;;;;;;;;;;;;27.89;28.32;100966.63;5111783;28;19916;-79
2024/03/15 10:30:01;;;;;;;;;;;;;;;26.20;30.39;100976.25;5115282;28;19916;-81
2024/03/15 10:32:51;;;;;;;;;;;;;;;26.80;30.05;100963.56;5111426;28;19920;-79
2024/03/15 10:35:44;;;;;;;;;;;;;;;26.13;31.39;100967.94;5096579;28;19923;-80
2024/03/15 10:38:34;;;;;;;;;;;;;;;25.46;32.15;100963.78;5098005;28;19915;-79
2024/03/15 10:41:24;;;;;;;;;;;;;;;24.11;34.92;100962.91;5077234;28;19916;-80
2024/03/15 10:44:17;;;;;;;;;;;;;;;23.81;35.60;100960.59;5096160;28;19916;-80
2024/03/15 10:47:06;;;;;;;;;;;;;;;24.61;34.26;100961.56;5111803;28;19915;-79
2024/03/15 10:49:54;;;;;;;;;;;;;;;25.40;33.30;100965.44;5107192;28;19916;-79
2024/03/15 10:52:44;;;;;;;;;;;;;;;25.78;32.28;100965.53;5084788;28;19915;-81
2024/03/15 10:55:36;;;;;;;;;;;;;;;24.57;33.99;100963.56;5100365;28;19916;-79
2024/03/15 10:58:28;;;;;;;;;;;;;;;23.60;36.00;100958.63;5097361;28;20380;-79
2024/03/15 11:01:21;;;;;;;;;;;;;;;23.50;36.07;100958.63;5115178;28;19916;-80
2024/03/15 11:04:19;;;;;;;;;;;;;;;22.96;37.84;100961.31;5112881;28;19915;-79
2024/03/15 11:07:06;;;;;;;;;;;;;;;22.66;37.63;100958.03;5107390;28;19920;-79
2024/03/15 11:10:08;;;;;;;;;;;;;;;23.38;37.15;100960.56;5076383;28;19931;-81
2024/03/15 11:13:03;;;;;;;;;;;;;;;22.37;38.76;100967.44;5068863;28;19917;-81
2024/03/15 11:15:55;;;;;;;;;;;;;;;22.72;38.62;100964.81;5082348;28;19924;-80
2024/03/15 11:18:47;;;;;;;;;;;;;;;23.12;37.45;100957.38;5097101;28;19916;-81
2024/03/15 11:21:39;;;;;;;;;;;;;;;22.92;37.29;100956.94;5075249;28;20305;-80
2024/03/15 11:24:41;;;;;;;;;;;;;;;24.44;35.98;100962.41;5091960;28;20300;-80
2024/03/15 11:27:32;;;;;;;;;;;;;;;24.24;35.33;100958.50;5092702;28;19916;-82
2024/03/15 11:30:24;;;;;;;;;;;;;;;25.36;33.11;100961.09;5084092;28;20386;-80
2024/03/15 11:33:16;;;;;;;;;;;;;;;27.16;30.45;100953.47;5092506;28;19920;-82
2024/03/15 11:36:08;;;;;;;;;;;;;;;28.89;28.29;100955.03;5092692;28;19920;-81
2024/03/15 11:39:00;;;;;;;;;;;;;;;30.37;26.20;100960.06;5081387;28;19916;-81
2024/03/15 11:41:52;;;;;;;;;;;;;;;31.20;25.33;100952.28;5081704;28;19920;-81
2024/03/15 11:44:44;;;;;;;;;;;;;;;29.46;27.16;100938.88;5094747;28;19920;-80
2024/03/15 11:47:37;;;;;;;;;;;;;;;27.11;30.43;100939.22;5090051;28;19917;-81
2024/03/15 11:50:30;;;;;;;;;;;;;;;24.64;34.36;100929.34;5086821;28;19920;-80
2024/03/15 11:53:23;;;;;;;;;;;;;;;23.15;37.49;100926.88;5085004;28;19916;-81
2024/03/15 11:56:15;;;;;;;;;;;;;;;22.44;39.39;100932.25;5096279;28;19920;-80
2024/03/15 11:59:07;;;;;;;;;;;;;;;23.02;38.43;100926.47;5081209;28;19920;-79
2024/03/15 12:01:54;;;;;;;;;;;;;;;23.84;36.59;100930.03;5096868;28;19916;-80
2024/03/15 12:04:41;;;;;;;;;;;;;;;24.84;35.14;100930.41;5083340;28;19920;-81
2024/03/15 12:07:33;;;;;;;;;;;;;;;23.52;36.72;100934.06;5081486;28;19916;-80
2024/03/15 12:10:25;;;;;;;;;;;;;;;24.03;36.00;100923.22;5084324;28;20304;-81
2024/03/15 12:13:35;;;;;;;;;;;;;;;25.16;33.43;100919.09;5082057;28;19920;-80
2024/03/15 12:16:24;;;;;;;;;;;;;;;23.98;35.56;100915.28;5084746;28;19924;-80
2024/03/15 12:19:16;;;;;;;;;;;;;;;23.94;35.57;100913.72;5090920;28;19916;-81
2024/03/15 12:22:07;;;;;;;;;;;;;;;24.93;34.42;100918.88;5081453;28;20304;-80
2024/03/15 12:25:02;;;;;;;;;;;;;;;24.97;34.01;100923.22;5082205;28;19916;-79
2024/03/15 12:27:54;;;;;;;;;;;;;;;24.71;34.63;100913.41;5081639;28;19916;-81
2024/03/15 12:30:44;;;;;;;;;;;;;;;23.88;35.34;100907.78;5084759;28;19916;-79
2024/03/15 12:33:36;;;;;;;;;;;;;;;23.22;36.33;100903.88;5082615;28;20324;-80
2024/03/15 12:36:28;;;;;;;;;;;;;;;23.03;37.56;100905.06;5095452;28;19924;-79
2024/03/15 12:39:20;;;;;;;;;;;;;;;23.43;36.14;100903.88;5094771;28;19920;-80
2024/03/15 12:42:15;;;;;;;;;;;;;;;24.19;35.62;100898.59;5082459;28;20385;-79
2024/03/15 12:45:04;;;;;;;;;;;;;;;23.88;34.99;100891.91;5079877;28;19916;-80
2024/03/15 12:47:59;;;;;;;;;;;;;;;24.60;34.51;100893.22;5093978;28;19916;-80
2024/03/15 12:50:51;;;;;;;;;;;;;;;23.82;35.22;100895.53;5080198;28;19916;-79
2024/03/15 12:53:43;;;;;;;;;;;;;;;23.59;36.22;100889.59;5094057;28;20309;-79
2024/03/15 12:56:31;;;;;;;;;;;;;;;23.15;36.56;100884.47;5081521;28;20385;-79
2024/03/15 12:59:20;;;;;;;;;;;;;;;22.81;37.04;100884.03;5078905;28;19920;-80
2024/03/15 13:02:10;;;;;;;;;;;;;;;22.77;37.64;100880.47;5093644;28;19916;-80
2024/03/15 13:04:59;;;;;;;;;;;;;;;22.87;37.78;100874.13;5079673;28;19923;-80
2024/03/15 13:07:51;;;;;;;;;;;;;;;22.95;38.06;100871.00;5093960;28;19920;-79
2024/03/15 13:10:43;;;;;;;;;;;;;;;22.20;39.85;100871.97;5093495;28;19916;-81
2024/03/15 13:13:35;;;;;;;;;;;;;;;20.99;42.11;100870.34;5094532;28;19928;-82
2024/03/15 13:16:28;;;;;;;;;;;;;;;20.30;44.15;100867.28;5084408;28;19920;-81
2024/03/15 13:19:20;;;;;;;;;;;;;;;19.88;44.34;100870.31;5082425;28;19920;-79
2024/03/15 13:22:12;;;;;;;;;;;;;;;19.81;45.25;100855.63;5088794;28;20392;-80
2024/03/15 13:25:04;;;;;;;;;;;;;;;19.61;45.67;100865.97;5092692;28;19920;-80
2024/03/15 13:27:56;;;;;;;;;;;;;;;19.53;46.53;100862.31;5079308;28;19920;-79
2024/03/15 13:30:43;;;;;;;;;;;;;;;19.54;47.12;100861.16;5076875;28;19916;-79
2024/03/15 13:33:38;;;;;;;;;;;;;;;19.33;46.93;100863.56;5109405;28;20393;-79
2024/03/15 13:36:31;;;;;;;;;;;;;;;19.38;47.28;100860.50;5092055;28;20304;-79
2024/03/15 13:39:23;;;;;;;;;;;;;;;19.60;47.48;100851.41;5091676;28;19920;-79
2024/03/15 13:42:11;;;;;;;;;;;;;;;19.58;46.24;100842.69;5108851;28;19916;-79
2024/03/15 13:45:01;;;;;;;;;;;;;;;19.61;46.74;100844.69;5077834;28;19916;-80
2024/03/15 13:47:54;;;;;;;;;;;;;;;19.42;46.98;100838.47;5080068;28;19916;-80
2024/03/15 13:50:46;;;;;;;;;;;;;;;19.50;46.85;100843.78;5078677;28;19919;-80
2024/03/15 13:53:35;;;;;;;;;;;;;;;19.68;47.44;100837.69;5086870;28;20008;-80
2024/03/15 13:56:27;;;;;;;;;;;;;;;19.39;45.93;100834.50;5101227;28;19920;-80
2024/03/15 13:59:19;;;;;;;;;;;;;;;19.41;45.96;100837.69;5111735;28;20304;-79
2024/03/15 14:02:10;;;;;;;;;;;;;;;19.28;46.54;100838.28;5111957;28;19919;-80
2024/03/15 14:05:00;;;;;;;;;;;;;;;19.59;45.61;100833.25;5096548;28;19920;-79
2024/03/15 14:07:49;;;;;;;;;;;;;;;19.56;46.07;100831.22;5086109;28;19916;-79
2024/03/15 14:10:39;;;;;;;;;;;;;;;19.67;46.26;100825.06;5061073;28;19921;-79
2024/03/15 14:13:31;;;;;;;;;;;;;;;19.40;46.19;100836.09;5073381;28;19920;-79
2024/03/15 14:16:26;;;;;;;;;;;;;;;19.36;46.87;100829.72;5057622;28;19924;-79
2024/03/15 14:19:18;;;;;;;;;;;;;;;19.43;46.87;100824.31;5074229;28;19920;-78
2024/03/15 14:22:10;;;;;;;;;;;;;;;19.46;47.40;100822.78;5072786;28;20389;-79
2024/03/15 14:25:00;;;;;;;;;;;;;;;19.51;47.13;100820.50;5085701;28;20213;-79
2024/03/15 14:27:54;;;;;;;;;;;;;;;19.49;47.55;100822.88;5074026;28;19921;-79
2024/03/15 14:30:46;;;;;;;;;;;;;;;19.42;47.39;100824.69;5063739;28;19920;-79
2024/03/15 14:33:38;;;;;;;;;;;;;;;19.48;47.33;100818.50;5091079;28;19924;-79
2024/03/15 14:36:31;;;;;;;;;;;;;;;19.61;46.67;100824.59;5078777;28;19920;-79
2024/03/15 14:39:22;;;;;;;;;;;;;;;19.50;46.49;100829.97;5090640;28;19920;-79
2024/03/15 14:42:14;;;;;;;;;;;;;;;19.56;46.45;100822.16;5109133;28;20304;-79
2024/03/15 14:45:06;;;;;;;;;;;;;;;19.58;46.47;100823.38;5105617;28;19916;-79
2024/03/15 14:47:59;;;;;;;;;;;;;;;19.47;46.65;100825.19;5091184;28;19920;-79